Aérodrome :
LOGIN :

S'inscrire | Disclaimer

   EN    FR    IT 

 










Légende :    VFR   VFR Marginal   IFR   IFR Intensif   IFR Très Intensif
Visi : 
Plafond : 
>= 8 km
>= 3000ft
5 à 8 km
1000 à 3000 ft
1500m à 5 km
500 à 1000 ft
800 à 1500m
200 à 500 ft
< 800m
< 200 ft
Symboles :   Orages  Brouillard  Fortes neiges  Fortes précipitations  Vent > 20 kt
SIGMETs :   Divers  Orages  Givrage  Turbulence  Onde Orograph.  Cendres Volcan.






- Altitude de l'aérodrome : 137 ft
- Code IATA : ARN


ESSA - Stockholm-Arlanda

DERNIER METAR :
  • 091550Z 21009KT 9999 BKN028 BKN059 OVC072 05/02 Q0985 R01L/29//95 R08/29//95 R01R/29//95 BECMG 35010KT

METARs EXPIRÉS :
  • 091520Z 22009KT 9999 SCT030 BKN038 BKN049 05/03 Q0985 R01L/29//95 R08/29//95 R01R/29//95 BECMG 35010KT
  • 091450Z 21009KT 9999 SCT024 BKN031 05/03 Q0984 R01L/29//95 R08/29//95 R01R/29//95 BECMG 35010KT
  • 091420Z 21011KT 9999 -RASN FEW016 BKN024 05/03 Q0984 R01L/29//95 R08/29//95 R01R/29//95 BECMG 35010KT
  • 091350Z 21011KT 9999 -DZ FEW016 BKN032 06/02 Q0983 R01L/19//95 R08/19//95 R01R/19//95 NOSIG
  • 091320Z 21011KT 9999 FEW027 BKN037 06/03 Q0983 R01L/19//95 R08/19//95 R01R/19//95 NOSIG
  • 091250Z 21011KT 9999 BKN028 06/03 Q0983 R01L/19//95 R08/19//95 R01R/19//95 NOSIG

TAF AMD TAF ESSA
Valide du 09 à 12h jusqu'au 10 à 12h UTC


091259Z 0912/1012 22012KT 9999 BKN025
BECMG 0915/0917 35010KT
TEMPO 0916/1001 2000 SN BKN008



MET'MAP, la Météo Aéronautique d'un coup d'oeil ! - Copyright ORBIFLY Décembre 2007 - Disclaimer

ORBIFLY MET'MAP TEAM :

Programmation & Développement : Alexandra Zaïnal
Sur une idée originale de : Baudouin d'Aumeries
Assistance à la programmation : Marc-Olivier Méhu
Soutien technique & logistique : Manuel Goepfert

Contact : metmap@orbifly.com




SOURCES & CREDITS :

   NOAA